AirNav   Air Wisconsin pilot careers
 
 974 users online  

8V6 Dove Creek Airport
Dove Creek, Colorado, USA

GOING TO DOVE CREEK?


FAA INFORMATION EFFECTIVE 29 MARCH 2018

Location

FAA Identifier: 8V6
Lat/Long: 37-45-53.1000N / 108-53-19.1000W
37-45.885000N / 108-53.318333W
37.7647500 / -108.8886389
(estimated)
Elevation: 6975 ft. / 2126 m (estimated)
Variation: 13E (1985)
From city: 1 mile E of DOVE CREEK, CO
Time zone: UTC -6 (UTC -7 during Standard Time)
Zip code: 81324

Airport Operations

Airport use: Open to the public
Activation date: 10/1944
Control tower: no
ARTCC: DENVER CENTER
FSS: DENVER FLIGHT SERVICE STATION
NOTAMs facility: DEN (NOTAM-D service available)
Attendance: UNATNDD
Pattern altitude: 7700 ft. MSL
TPA 7700 MSL.
Wind indicator: yes
Segmented circle: no

Airport Communications

CTAF: 122.9

Nearby radio navigation aids

VOR radial/distance  VOR name  Freq  Var
DVCr129/3.3DOVE CREEK VORTAC114.6014E
CEZr311/27.3CORTEZ VOR/DME108.4014E
ETLr229/34.1CONES VOR/DME110.2012E

Airport Services

Parking: tiedowns
Bottled oxygen: NONE
Bulk oxygen: NONE

Runway Information

Runway 1/19

Dimensions: 4200 x 50 ft. / 1280 x 15 m
Surface: dirt, in fair condition
Operational restrictions: SOFT WHEN WET.
RUNWAY 1  RUNWAY 19
Latitude: 37-45.560500N37-46.208167N
Longitude: 108-53.471833W108-53.164167W
Elevation: 6975.0 ft.6932.0 ft.
Gradient: 1.9%1.0% UP
Traffic pattern: leftleft
Runway heading: 008 magnetic, 021 true188 magnetic, 201 true
Obstructions: 4 ft. fence15 ft. road, 75 ft. both sides of centerline

Airport Ownership and Management from official FAA records

Ownership: Privately-owned
Owner: DOVE CREEK AIRPORT INC
BOX 86
DOVE CREEK, CO 81324
Phone 970-677-2282
Manager: R A ANDERSON
BOX 86
DOVE CREEK, CO 81324
Phone 970-677-2282
CTC SHERIFFS DEPT BTN 0800-1200 FOR ASSISTANCE 970-677-2257.

Airport Operational Statistics

Aircraft based on the field: 5
Single engine airplanes: 4
Ultralights: 1
    
Aircraft operations: avg 42/month *
60% local general aviation
40% transient general aviation
* for 12-month period ending 31 December 2014

Additional Remarks

RY 19 +12 FT GND 258 FT R OF CNTRLN PARALLEL TO EXTDD CNTRLN FIRST 500 FT.
RY 01 HAS +15 FT ROAD, 80 FT FM & PARALLEL TO THLD; APCH RATION 0 : 1; +4 FT FENCE 0 FT FM & PARRALLEL TO THLD.
ARPT CLSD WHEN SNOW COVERED.
UNLIMITED VHICLE USE ON ARPT.
RY 01/19 HAS -3FT DITCH ALONG BOTH SIDES RY.
RY 01 +30 FT TREES 189 FT FM THLD 0B.
RY 01/19 HAS +4 FT BUSHES IN VARIOUS LOCATIONS 15 FT FM RY EDGE.

Instrument Procedures

There are no published instrument procedures at 8V6.

Some nearby airports with instrument procedures:

KBDG - Blanding Municipal Airport (30 nm W)
KCEZ - Cortez Municipal Airport (30 nm SE)
KAIB - Hopkins Field Airport (32 nm NE)
KTEX - Telluride Regional Airport (48 nm E)
KMTJ - Montrose Regional Airport (65 nm NE)
 
Loc | Ops | Rwys | IFR | FBO | Links
Com | Nav | Svcs | Stats | Notes

AirNav Hotels Sweepstakes
 
Area around 8V6 (Dove Creek Airport)
 
Road maps at: MapQuest Bing Google
 
Aerial photo
WARNING: Photo may not be current or correct
Aerial photo of 8V6 (Dove Creek Airport)
Do you have a better or more recent aerial photo of Dove Creek Airport that you would like to share? If so, please send us your photo.

 
Sectional chart

 
Airport distance calculator
Flying to Dove Creek Airport? Find the distance to fly.

From to 8V6

Sunrise and sunset
Times for 22-Apr-2018
 Local
(UTC-6)
 Zulu
(UTC)
Morning civil twilight06:0412:04
Sunrise06:3212:32
Sunset19:5601:56
Evening civil twilight20:2402:24

Current date and time
Zulu (UTC)  22-Apr-2018 20:15:22
Local (UTC-6)  22-Apr-2018 14:15:22
 
METAR
KBDG 
30nm W 
221955Z AUTO 21005KT 10SM 21/M04 A3018 RMK AO1 T02131036
KCEZ 
30nm SE 
221953Z AUTO 22012G18KT 200V270 10SM CLR 21/M07 A3011 RMK AO2 SLP152 T02111067
KAIB 
32nm NE 
221955Z AUTO 26007KT 10SM CLR 21/M05 A3014 RMK AO2
KTEX 
48nm E 
221955Z AUTO 03003KT 10SM SCT080 14/M05 A3024 RMK AO2 T01371053
TAF
KTEX 
48nm E 
221739Z 2218/2318 25006KT P6SM FEW250 FM222100 20007KT P6SM SCT200 FM222200 23007KT P6SM BKN120 FM230200 17005KT P6SM BKN120 FM231700 24009KT P6SM SCT200
NOTAMs
Click for the latest NOTAMs
NOTAMs are issued by the DoD/FAA and will open in a separate window not controlled by AirNav.

 

 
 

Would you like to see your business listed on this page?

 If your business provides an interesting product or service to pilots, flight crews, aircraft, or users of the Dove Creek Airport, you should consider listing it here.  To start the listing process, click on the button below
 
Add a business
 

Other Pages about Dove Creek Airport

Update a link
 
Copyright © AirNav, LLC. All rights reserved. Privacy Policy  Contact